Time;durP1;ratioP1;P1;durP2;ratioP2;P2;SDS_P1;SDS_P2;PMS_P1;PMS_P2;Temp;Humidity;BMP_temperature;BMP_pressure;BME280_temperature;BME280_humidity;BME280_pressure;Samples;Min_cycle;Max_cycle;Signal;HPM_P1;HPM_P2
2023/09/07 00:01:15;;;;;;;0.20;0.20;;;;;;;20.62;56.12;101816.75;4958093;28;20031;-92
2023/09/07 00:03:41;;;;;;;0.20;0.20;;;;;;;20.59;56.28;101823.09;4958326;28;20031;-93
2023/09/07 00:06:07;;;;;;;0.10;0.10;;;;;;;20.54;56.50;101819.94;4958146;28;20031;-91
2023/09/07 00:08:33;;;;;;;0.20;0.20;;;;;;;20.61;56.07;101830.88;4942122;28;20033;-92
2023/09/07 00:11:09;;;;;;;0.13;0.13;;;;;;;20.58;56.20;101831.09;4956971;28;20030;-92
2023/09/07 00:13:34;;;;;;;0.20;0.20;;;;;;;20.53;56.13;101834.03;4958642;28;20058;-92
2023/09/07 00:16:00;;;;;;;0.10;0.10;;;;;;;20.44;57.00;101826.81;4974229;28;20038;-93
2023/09/07 00:18:26;;;;;;;0.20;0.20;;;;;;;20.49;57.02;101835.22;4957851;28;20057;-91
2023/09/07 00:20:52;;;;;;;0.20;0.20;;;;;;;20.51;56.54;101835.09;4957541;28;20027;-92
2023/09/07 00:23:18;;;;;;;0.20;0.20;;;;;;;20.45;56.76;101830.28;4958079;28;20039;-92
2023/09/07 00:25:43;;;;;;;0.10;0.10;;;;;;;20.38;56.68;101826.41;4957808;28;20023;-92
2023/09/07 00:28:08;;;;;;;0.10;0.10;;;;;;;20.43;56.34;101837.44;4957352;28;20102;-94
2023/09/07 00:30:34;;;;;;;0.20;0.20;;;;;;;20.39;56.52;101841.22;4941513;28;20030;-91
2023/09/07 00:32:59;;;;;;;0.20;0.20;;;;;;;20.36;56.32;101828.31;4957588;28;20069;-91
2023/09/07 00:35:25;;;;;;;0.20;0.20;;;;;;;20.33;55.94;101832.78;4957549;28;20054;-92
2023/09/07 00:37:51;;;;;;;0.10;0.10;;;;;;;20.39;55.46;101842.06;4957498;28;20031;-91
2023/09/07 00:40:16;;;;;;;0.10;0.10;;;;;;;20.28;55.80;101821.78;4941220;28;20034;-94
2023/09/07 00:42:42;;;;;;;0.20;0.20;;;;;;;20.33;55.69;101835.44;4973459;28;20114;-92
2023/09/07 00:45:07;;;;;;;0.10;0.10;;;;;;;20.37;55.43;101840.50;4941483;28;20117;-92
2023/09/07 00:47:34;;;;;;;0.17;0.17;;;;;;;20.43;54.87;101834.81;4957359;28;20033;-92
2023/09/07 00:49:59;;;;;;;0.20;0.20;;;;;;;20.33;55.58;101832.78;4941261;28;20042;-92
2023/09/07 00:52:25;;;;;;;0.20;0.20;;;;;;;20.31;55.52;101837.34;4957282;28;20027;-92
2023/09/07 00:54:50;;;;;;;0.20;0.20;;;;;;;20.30;54.95;101843.53;4957322;28;20034;-92
2023/09/07 00:57:16;;;;;;;0.20;0.20;;;;;;;20.29;55.03;101839.22;4957184;28;20031;-91
2023/09/07 00:59:41;;;;;;;0.20;0.20;;;;;;;20.35;54.73;101832.69;4957151;28;20031;-93
2023/09/07 01:02:07;;;;;;;0.20;0.20;;;;;;;20.39;54.73;101841.22;4957038;28;20035;-93
2023/09/07 01:04:33;;;;;;;0.20;0.20;;;;;;;20.39;54.11;101839.41;4957046;28;20041;-93
2023/09/07 01:07:17;;;;;;;0.10;0.10;;;;;;;20.33;53.96;101832.78;4956999;28;20038;-92
2023/09/07 01:09:42;;;;;;;0.20;0.20;;;;;;;20.36;53.89;101841.44;4957511;28;20026;-92
2023/09/07 01:12:12;;;;;;;0.17;0.17;;;;;;;20.29;53.33;101825.25;4956692;28;20037;-92
2023/09/07 01:14:38;;;;;;;0.20;0.20;;;;;;;20.32;53.01;101838.16;4957419;28;20074;-92
2023/09/07 01:17:03;;;;;;;0.13;0.13;;;;;;;20.24;52.85;101835.25;4956920;28;20093;-92
2023/09/07 01:19:29;;;;;;;0.20;0.20;;;;;;;20.23;52.87;101849.31;4956471;28;20495;-93
2023/09/07 01:21:54;;;;;;;0.20;0.20;;;;;;;20.10;52.92;101824.88;4940434;28;20029;-93
2023/09/07 01:24:20;;;;;;;0.10;0.10;;;;;;;20.04;52.75;101820.88;4956607;28;20031;-92
2023/09/07 01:26:49;;;;;;;0.20;0.20;;;;;;;20.21;52.59;101841.56;4940315;28;20485;-92
2023/09/07 01:29:16;;;;;;;0.20;0.20;;;;;;;20.23;52.65;101844.91;4956981;28;20519;-92
2023/09/07 01:31:42;;;;;;;0.10;0.10;;;;;;;20.17;52.50;101842.72;4956737;28;20118;-93
2023/09/07 01:34:08;;;;;;;0.20;0.20;;;;;;;20.12;52.82;101841.34;4956628;28;20031;-92
2023/09/07 01:36:34;;;;;;;0.20;0.20;;;;;;;20.14;52.75;101842.09;4956681;28;20473;-91
2023/09/07 01:38:59;;;;;;;0.20;0.20;;;;;;;20.05;52.48;101839.16;4940627;28;20034;-91
2023/09/07 01:41:24;;;;;;;0.20;0.20;;;;;;;20.09;52.80;101844.22;4956149;28;20093;-92
2023/09/07 01:43:50;;;;;;;0.20;0.20;;;;;;;19.94;53.05;101843.47;4940449;28;20030;-92
2023/09/07 01:46:15;;;;;;;0.10;0.10;;;;;;;19.86;52.60;101837.91;4940440;28;20496;-93
2023/09/07 01:48:42;;;;;;;0.10;0.10;;;;;;;19.87;52.86;101844.84;4940362;28;20031;-93
2023/09/07 01:51:07;;;;;;;0.20;0.20;;;;;;;19.81;53.35;101840.03;4940286;28;20033;-92
2023/09/07 01:53:33;;;;;;;0.20;0.20;;;;;;;19.84;53.63;101840.63;4940422;28;20031;-92
2023/09/07 01:55:59;;;;;;;0.10;0.10;;;;;;;19.74;53.28;101832.53;4940044;28;20030;-91
2023/09/07 01:58:24;;;;;;;0.10;0.10;;;;;;;19.78;53.65;101841.06;4940251;28;20105;-92
2023/09/07 02:00:50;;;;;;;0.20;0.20;;;;;;;19.81;53.63;101832.13;4956059;28;20037;-93
2023/09/07 02:03:15;;;;;;;0.10;0.10;;;;;;;19.76;53.86;101833.31;4955996;28;20035;-94
2023/09/07 02:05:41;;;;;;;0.20;0.20;;;;;;;19.73;53.96;101841.38;4939978;28;20038;-91
2023/09/07 02:08:06;;;;;;;0.20;0.20;;;;;;;19.73;53.90;101838.75;4939966;28;20034;-93
2023/09/07 02:10:33;;;;;;;0.20;0.20;;;;;;;19.59;54.10;101824.91;4955720;28;20089;-92
2023/09/07 02:12:58;;;;;;;0.20;0.20;;;;;;;19.63;54.24;101831.59;4939912;28;20113;-92
2023/09/07 02:15:24;;;;;;;0.10;0.10;;;;;;;19.54;54.36;101835.66;4971789;28;20034;-93
2023/09/07 02:17:49;;;;;;;0.20;0.20;;;;;;;19.57;54.22;101843.38;4955689;28;20027;-93
2023/09/07 02:20:15;;;;;;;0.20;0.20;;;;;;;19.47;54.63;101837.88;4955769;28;20559;-93
2023/09/07 02:22:40;;;;;;;0.20;0.20;;;;;;;19.49;54.68;101840.41;4971963;28;20464;-92
2023/09/07 02:25:06;;;;;;;0.10;0.10;;;;;;;19.52;54.45;101837.56;4955560;28;20034;-92
2023/09/07 02:27:32;;;;;;;0.20;0.20;;;;;;;19.59;53.95;101844.09;4955821;28;20424;-92
2023/09/07 02:29:58;;;;;;;0.20;0.20;;;;;;;19.46;54.42;101830.06;4939666;28;20056;-92
2023/09/07 02:32:23;;;;;;;0.10;0.10;;;;;;;19.51;54.37;101849.00;4955428;28;20035;-93
2023/09/07 02:34:49;;;;;;;0.10;0.10;;;;;;;19.52;54.31;101845.44;4955328;28;20503;-92
2023/09/07 02:37:15;;;;;;;0.10;0.10;;;;;;;19.56;53.97;101851.31;4955819;28;20034;-92
2023/09/07 02:39:41;;;;;;;0.20;0.20;;;;;;;19.42;53.74;101833.88;4955435;28;20096;-92
2023/09/07 02:42:07;;;;;;;0.17;0.17;;;;;;;19.46;53.77;101851.06;4955559;28;20035;-94
2023/09/07 02:44:32;;;;;;;0.10;0.10;;;;;;;19.50;53.70;101844.69;4955326;28;20485;-93
2023/09/07 02:46:58;;;;;;;0.10;0.10;;;;;;;19.58;53.37;101847.69;4955449;28;20042;-92
2023/09/07 02:49:23;;;;;;;0.20;0.20;;;;;;;19.50;53.43;101852.56;4955559;28;20027;-92
2023/09/07 02:51:48;;;;;;;0.20;0.20;;;;;;;19.57;53.36;101853.88;4939365;28;20034;-93
2023/09/07 02:54:14;;;;;;;0.15;0.15;;;;;;;19.68;53.14;101861.88;4939311;28;20030;-91
2023/09/07 02:56:39;;;;;;;0.20;0.20;;;;;;;19.64;53.25;101862.16;4939229;28;20408;-92
2023/09/07 02:59:05;;;;;;;0.10;0.10;;;;;;;19.91;55.59;101867.31;4939513;28;20038;-92
2023/09/07 03:01:30;;;;;;;0.20;0.20;;;;;;;19.91;54.44;101851.56;4939601;28;20077;-93
2023/09/07 03:03:56;;;;;;;0.20;0.20;;;;;;;20.02;53.72;101859.53;4939889;28;20030;-92
2023/09/07 03:06:21;;;;;;;0.10;0.10;;;;;;;20.08;53.76;101856.50;4955635;28;20038;-92
2023/09/07 03:08:47;;;;;;;0.10;0.10;;;;;;;20.32;52.14;101872.34;4955197;28;20481;-94
2023/09/07 03:11:12;;;;;;;0.20;0.20;;;;;;;20.25;51.55;101876.31;4955315;28;20037;-93
2023/09/07 03:13:38;;;;;;;0.20;0.20;;;;;;;20.28;51.57;101865.63;4955433;28;20034;-92
2023/09/07 03:16:04;;;;;;;0.20;0.20;;;;;;;20.23;52.02;101867.72;4955274;28;20535;-93
2023/09/07 03:18:29;;;;;;;0.15;0.15;;;;;;;20.35;51.26;101861.59;4939491;28;20051;-92
2023/09/07 03:20:55;;;;;;;0.13;0.13;;;;;;;20.30;50.44;101863.72;4955503;28;20085;-93
2023/09/07 03:23:55;;;;;;;0.20;0.20;;;;;;;20.21;50.77;101874.88;4939273;28;20078;-93
2023/09/07 03:26:21;;;;;;;0.20;0.20;;;;;;;20.05;51.46;101861.94;4938797;28;20082;-92
2023/09/07 03:28:46;;;;;;;0.20;0.20;;;;;;;19.90;51.87;101857.78;4939245;28;20050;-94
2023/09/07 03:31:12;;;;;;;0.20;0.20;;;;;;;20.20;51.54;101883.72;4955145;28;20030;-92
2023/09/07 03:33:37;;;;;;;0.20;0.20;;;;;;;20.16;51.68;101882.25;4939882;28;20027;-92
2023/09/07 03:36:03;;;;;;;0.10;0.10;;;;;;;20.15;51.15;101870.88;4939264;28;20046;-94
2023/09/07 03:38:29;;;;;;;0.20;0.20;;;;;;;20.09;51.83;101881.81;4953046;28;20035;-91
2023/09/07 03:40:55;;;;;;;0.10;0.10;;;;;;;20.14;52.24;101900.72;4947790;28;20058;-92
2023/09/07 03:43:20;;;;;;;0.20;0.20;;;;;;;19.91;52.81;101898.84;4938869;28;20027;-90
2023/09/07 03:45:46;;;;;;;0.20;0.20;;;;;;;20.01;52.91;101905.16;4940466;28;20101;-93
2023/09/07 03:48:11;;;;;;;0.20;0.20;;;;;;;20.10;52.61;101894.00;4943979;28;20035;-92
2023/09/07 03:50:37;;;;;;;0.20;0.20;;;;;;;20.18;52.42;101912.72;4941956;28;20674;-93
2023/09/07 03:53:03;;;;;;;0.20;0.20;;;;;;;20.51;51.78;101913.97;4958004;28;20027;-91
2023/09/07 03:55:28;;;;;;;0.20;0.20;;;;;;;20.51;51.23;101916.59;4942013;28;20027;-93
2023/09/07 03:57:54;;;;;;;0.20;0.20;;;;;;;20.64;50.93;101922.66;4957729;28;20035;-92
2023/09/07 04:00:19;;;;;;;0.17;0.17;;;;;;;20.56;50.79;101912.72;4941664;28;20416;-90
2023/09/07 04:02:45;;;;;;;0.20;0.20;;;;;;;20.35;51.95;101919.41;4954643;28;20026;-88
2023/09/07 04:05:10;;;;;;;0.20;0.20;;;;;;;20.48;51.98;101920.28;4956381;28;20130;-90
2023/09/07 04:07:37;;;;;;;0.20;0.20;;;;;;;20.42;51.64;101925.09;4940352;28;20022;-91
2023/09/07 04:10:04;;;;;;;0.20;0.20;;;;;;;19.81;52.97;101903.03;4941183;28;20045;-90
2023/09/07 04:12:30;;;;;;;0.20;0.20;;;;;;;19.89;52.17;101919.97;4957363;28;20077;-93
2023/09/07 04:14:55;;;;;;;0.20;0.20;;;;;;;19.59;53.23;101899.22;4957585;28;20035;-87
2023/09/07 04:17:20;;;;;;;0.10;0.10;;;;;;;19.80;53.47;101928.47;4956708;28;20042;-94
2023/09/07 04:19:46;;;;;;;0.10;0.10;;;;;;;19.49;54.15;101898.13;4952871;28;20058;-86
2023/09/07 04:22:12;;;;;;;0.10;0.10;;;;;;;19.89;53.37;101932.25;4951491;28;20046;-90
2023/09/07 04:24:37;;;;;;;0.10;0.10;;;;;;;19.63;53.93;101924.31;4957920;28;20034;-91
2023/09/07 04:27:03;;;;;;;0.20;0.20;;;;;;;20.07;52.61;101935.44;4957565;28;20445;-93
2023/09/07 04:29:29;;;;;;;0.20;0.20;;;;;;;19.89;53.44;101933.09;4957418;28;20066;-92
2023/09/07 04:31:54;;;;;;;0.20;0.20;;;;;;;20.17;52.53;101920.72;4956628;28;20066;-93
2023/09/07 04:34:21;;;;;;;0.20;0.20;;;;;;;20.47;51.75;101937.00;4959318;28;20420;-91
2023/09/07 04:36:46;;;;;;;0.20;0.20;;;;;;;20.55;51.73;101937.31;4956051;28;20031;-94
2023/09/07 04:39:14;;;;;;;0.20;0.20;;;;;;;20.67;51.83;101935.59;4927610;29;20078;-92
2023/09/07 04:41:39;;;;;;;0.10;0.10;;;;;;;21.14;50.31;101944.53;4940602;28;20031;-93
2023/09/07 04:44:05;;;;;;;0.20;0.20;;;;;;;20.83;51.22;101935.34;4952732;28;20045;-87
2023/09/07 04:46:30;;;;;;;0.10;0.10;;;;;;;21.26;49.45;101925.22;4941789;28;20090;-90
2023/09/07 04:48:56;;;;;;;0.20;0.20;;;;;;;21.47;49.52;101942.06;4938987;28;20051;-88
2023/09/07 04:51:22;;;;;;;0.20;0.20;;;;;;;21.44;49.09;101939.66;4955002;28;20031;-91
2023/09/07 04:53:47;;;;;;;0.20;0.20;;;;;;;21.51;49.15;101945.31;4954696;28;20027;-89
2023/09/07 04:56:13;;;;;;;0.20;0.20;;;;;;;21.47;49.51;101957.03;4972969;28;20034;-88
2023/09/07 04:58:38;;;;;;;0.10;0.10;;;;;;;21.39;49.69;101954.94;4954390;28;20062;-86
2023/09/07 05:01:08;;;;;;;0.20;0.20;;;;;;;21.14;50.58;101955.06;4954762;28;20026;-88
2023/09/07 05:03:34;;;;;;;0.20;0.20;;;;;;;21.38;50.62;101961.16;4938253;28;20030;-95
2023/09/07 05:06:06;;;;;;;0.20;0.20;;;;;;;21.80;49.66;101955.47;4958424;28;20035;-92
2023/09/07 05:08:31;;;;;;;0.20;0.20;;;;;;;21.94;49.21;101953.47;4963111;28;20035;-90
2023/09/07 05:11:00;;;;;;;0.20;0.20;;;;;;;22.07;49.07;101939.38;4940715;28;20035;-90
2023/09/07 05:13:25;;;;;;;0.20;0.20;;;;;;;21.99;49.89;101961.84;4948277;28;20488;-91
2023/09/07 05:15:51;;;;;;;0.20;0.20;;;;;;;22.21;48.51;101961.06;4959233;28;20592;-91
2023/09/07 05:18:17;;;;;;;0.20;0.20;;;;;;;22.11;48.87;101965.38;4968118;28;20086;-90
2023/09/07 05:20:44;;;;;;;0.20;0.20;;;;;;;22.08;47.70;101970.88;4952680;28;20513;-89
2023/09/07 05:23:17;;;;;;;0.20;0.20;;;;;;;22.08;48.42;101962.16;4952768;28;20038;-88
2023/09/07 05:25:44;;;;;;;0.10;0.10;;;;;;;22.09;47.70;101937.47;4967743;28;20034;-84
2023/09/07 05:28:09;;;;;;;0.20;0.20;;;;;;;21.97;48.14;101963.78;4987888;28;20026;-90
2023/09/07 05:30:35;;;;;;;0.20;0.20;;;;;;;22.13;47.63;101954.75;4990288;28;20049;-89
2023/09/07 05:33:00;;;;;;;0.20;0.20;;;;;;;22.11;47.55;101960.09;4951832;28;20089;-92
2023/09/07 05:35:29;;;;;;;0.20;0.20;;;;;;;22.32;47.46;101950.56;4972630;28;20041;-85
2023/09/07 05:37:54;;;;;;;0.20;0.20;;;;;;;22.35;46.75;101954.75;4973877;28;20037;-88
2023/09/07 05:40:20;;;;;;;0.10;0.10;;;;;;;22.25;47.50;101956.44;4962919;28;20055;-89
2023/09/07 05:42:45;;;;;;;0.20;0.20;;;;;;;22.57;46.60;101959.19;4946219;28;20030;-86
2023/09/07 05:45:10;;;;;;;0.20;0.20;;;;;;;22.46;46.40;101960.03;4956863;28;20042;-88
2023/09/07 05:47:36;;;;;;;0.20;0.20;;;;;;;22.50;46.66;101968.53;4942100;28;20038;-88
2023/09/07 05:50:01;;;;;;;0.20;0.20;;;;;;;22.72;45.95;101970.34;4961032;28;20101;-92
2023/09/07 05:52:27;;;;;;;0.20;0.20;;;;;;;22.65;46.10;101963.88;4950059;28;20089;-87
2023/09/07 05:54:52;;;;;;;0.20;0.20;;;;;;;22.71;46.12;101973.91;4951830;28;20026;-87
2023/09/07 05:57:17;;;;;;;0.20;0.20;;;;;;;22.98;45.63;101963.00;4988891;28;20523;-94
2023/09/07 05:59:43;;;;;;;0.20;0.20;;;;;;;22.83;45.95;101965.03;4976241;28;20104;-91
2023/09/07 06:02:08;;;;;;;0.20;0.20;;;;;;;22.84;47.01;101988.69;4981290;28;20039;-92
2023/09/07 06:04:35;;;;;;;0.10;0.10;;;;;;;22.64;46.95;101959.56;4968968;28;20030;-93
2023/09/07 06:07:00;;;;;;;0.10;0.10;;;;;;;22.53;46.82;101948.03;4972822;28;20049;-92
2023/09/07 06:09:26;;;;;;;0.20;0.20;;;;;;;22.55;47.03;101998.88;4981202;28;20034;-92
2023/09/07 06:11:51;;;;;;;0.20;0.20;;;;;;;22.54;47.47;101994.56;4978193;28;20030;-89
2023/09/07 06:14:16;;;;;;;0.10;0.10;;;;;;;22.52;47.57;101991.19;4984774;28;20031;-91
2023/09/07 06:16:42;;;;;;;0.20;0.20;;;;;;;22.42;47.28;101997.28;4970858;28;20027;-91
2023/09/07 06:19:07;;;;;;;0.20;0.20;;;;;;;22.42;47.98;101992.00;4955457;28;20055;-91
2023/09/07 06:21:33;;;;;;;0.20;0.20;;;;;;;22.75;47.44;102001.75;4957169;28;20034;-89
2023/09/07 06:23:58;;;;;;;0.20;0.20;;;;;;;22.57;46.58;101994.31;4945069;28;20039;-87
2023/09/07 06:26:24;;;;;;;0.20;0.20;;;;;;;22.22;47.76;101964.53;4963756;28;20085;-91
2023/09/07 06:28:49;;;;;;;0.20;0.20;;;;;;;22.03;47.15;101992.31;4939367;28;20027;-88
2023/09/07 06:31:15;;;;;;;0.20;0.20;;;;;;;22.14;48.72;102004.69;4986297;28;20093;-88
2023/09/07 06:33:40;;;;;;;0.20;0.20;;;;;;;22.28;47.69;102009.75;4976180;28;20039;-89
2023/09/07 06:36:05;;;;;;;0.20;0.20;;;;;;;22.60;46.77;102001.97;4948598;28;20042;-86
2023/09/07 06:38:31;;;;;;;0.20;0.20;;;;;;;22.65;45.29;102008.69;4957017;28;20094;-93
2023/09/07 06:40:57;;;;;;;0.20;0.20;;;;;;;22.67;46.03;102022.59;4945547;28;20050;-93
2023/09/07 06:43:22;;;;;;;0.20;0.20;;;;;;;22.78;44.77;102006.78;4968889;28;20034;-88
2023/09/07 06:45:48;;;;;;;0.20;0.20;;;;;;;22.61;45.33;102013.34;4971545;28;20090;-86
2023/09/07 06:48:13;;;;;;;0.20;0.20;;;;;;;22.55;44.87;102009.41;4937220;28;20521;-92
2023/09/07 06:50:39;;;;;;;0.10;0.10;;;;;;;22.40;44.40;102009.75;4940844;29;20031;-93
2023/09/07 06:53:04;;;;;;;0.20;0.20;;;;;;;22.46;46.78;102006.66;4936349;28;20043;-90
2023/09/07 06:55:30;;;;;;;0.20;0.20;;;;;;;22.53;46.07;102016.63;4941381;28;20030;-92
2023/09/07 06:57:55;;;;;;;0.20;0.20;;;;;;;22.37;45.72;102020.53;4971098;28;20060;-92
2023/09/07 07:00:21;;;;;;;0.20;0.20;;;;;;;22.36;46.57;102003.88;4951950;28;20504;-89
2023/09/07 07:02:46;;;;;;;0.13;0.13;;;;;;;22.35;46.54;101991.66;4942463;28;20420;-92
2023/09/07 07:05:12;;;;;;;0.20;0.20;;;;;;;22.74;44.15;101997.44;4969520;28;20457;-93
2023/09/07 07:07:38;;;;;;;0.20;0.20;;;;;;;22.80;44.44;102018.03;4960658;28;20029;-91
2023/09/07 07:10:04;;;;;;;0.20;0.20;;;;;;;22.84;44.74;102008.97;4955127;28;20398;-94
2023/09/07 07:12:34;;;;;;;0.20;0.20;;;;;;;22.60;44.37;102009.88;4956814;28;20026;-93
2023/09/07 07:14:59;;;;;;;0.20;0.20;;;;;;;22.90;44.58;102003.19;4972065;28;20030;-90
2023/09/07 07:17:25;;;;;;;0.20;0.20;;;;;;;22.93;42.47;102013.53;4989140;28;20054;-88
2023/09/07 07:19:50;;;;;;;0.20;0.20;;;;;;;22.94;41.94;102014.34;4974966;28;20055;-91
2023/09/07 07:22:16;;;;;;;0.20;0.20;;;;;;;23.01;44.21;102016.41;4963754;28;20027;-91
2023/09/07 07:24:42;;;;;;;0.20;0.20;;;;;;;23.07;42.87;101999.22;4967000;28;20108;-90
2023/09/07 07:27:07;;;;;;;0.20;0.20;;;;;;;23.36;41.13;102023.28;4977915;28;20031;-90
2023/09/07 07:29:35;;;;;;;0.20;0.20;;;;;;;23.25;40.84;102010.09;4952346;28;20035;-94
2023/09/07 07:32:01;;;;;;;0.20;0.20;;;;;;;22.95;40.52;101985.22;4948955;28;20453;-92
2023/09/07 07:34:26;;;;;;;0.20;0.20;;;;;;;22.85;43.34;102016.75;4986226;28;20038;-91
2023/09/07 07:36:52;;;;;;;0.20;0.20;;;;;;;22.90;42.72;102014.59;4987986;28;20547;-91
2023/09/07 07:39:17;;;;;;;0.20;0.20;;;;;;;23.06;43.74;102008.94;4945897;28;20059;-92
2023/09/07 07:41:45;;;;;;;0.20;0.20;;;;;;;23.19;41.60;102014.06;4979487;28;20034;-92
2023/09/07 07:44:11;;;;;;;0.20;0.20;;;;;;;23.26;43.07;102011.78;4949898;28;20488;-94
2023/09/07 07:46:36;;;;;;;0.20;0.20;;;;;;;23.47;42.59;102013.50;4971050;28;20492;-94
2023/09/07 07:49:02;;;;;;;0.20;0.20;;;;;;;23.66;39.93;102019.97;4943256;28;20066;-90
2023/09/07 07:51:27;;;;;;;0.20;0.20;;;;;;;23.63;42.50;101997.28;4967723;28;20034;-92
2023/09/07 07:53:55;;;;;;;0.20;0.20;;;;;;;24.02;40.53;102008.16;4979502;28;20496;-87
2023/09/07 07:56:20;;;;;;;0.15;0.15;;;;;;;24.13;40.55;102015.16;4970606;28;20475;-90
2023/09/07 07:58:45;;;;;;;0.20;0.20;;;;;;;24.02;40.25;102006.34;4956625;28;20031;-87
2023/09/07 08:01:15;;;;;;;0.20;0.20;;;;;;;23.77;40.06;102000.56;4938826;28;20027;-87
2023/09/07 08:03:41;;;;;;;0.20;0.20;;;;;;;23.72;39.38;102003.63;4978765;28;20023;-92
2023/09/07 08:06:06;;;;;;;0.20;0.20;;;;;;;23.83;39.46;102013.28;4959843;28;20031;-90
2023/09/07 08:08:32;;;;;;;0.20;0.20;;;;;;;23.95;40.55;102021.03;4973793;28;20039;-91
2023/09/07 08:10:59;;;;;;;0.20;0.20;;;;;;;24.06;41.15;102024.56;4983383;28;20034;-88
2023/09/07 08:13:25;;;;;;;0.20;0.20;;;;;;;24.19;39.20;102014.66;4961069;28;20086;-93
2023/09/07 08:15:50;;;;;;;0.20;0.20;;;;;;;24.25;40.97;102009.66;4948222;28;20550;-92
2023/09/07 08:18:16;;;;;;;0.20;0.20;;;;;;;24.42;39.44;102010.06;4973826;28;20054;-89
2023/09/07 08:20:41;;;;;;;0.20;0.20;;;;;;;24.46;39.65;102014.13;4959932;28;20479;-93
2023/09/07 08:23:09;;;;;;;0.20;0.20;;;;;;;24.38;38.37;102013.94;4976785;28;20037;-91
2023/09/07 08:25:35;;;;;;;0.20;0.20;;;;;;;24.44;40.34;102013.41;4949757;28;20420;-93
2023/09/07 08:28:00;;;;;;;0.20;0.20;;;;;;;24.52;38.65;102010.97;4959376;28;20037;-90
2023/09/07 08:30:25;;;;;;;0.20;0.20;;;;;;;24.55;38.39;102000.09;4967798;28;20507;-86
2023/09/07 08:32:51;;;;;;;0.20;0.20;;;;;;;24.46;40.61;101983.22;4962070;28;20038;-92
2023/09/07 08:35:17;;;;;;;0.20;0.20;;;;;;;24.76;39.62;102007.97;4940884;28;20034;-92
2023/09/07 08:37:42;;;;;;;0.20;0.20;;;;;;;24.85;38.21;102002.72;4961145;28;20141;-93
2023/09/07 08:40:08;;;;;;;0.20;0.20;;;;;;;24.94;39.21;101992.31;4945812;28;20050;-92
2023/09/07 08:42:38;;;;;;;0.20;0.20;;;;;;;25.10;37.86;101997.97;4991102;28;20053;-88
2023/09/07 08:45:06;;;;;;;0.20;0.20;;;;;;;25.22;37.79;101988.91;4962076;28;20048;-88
2023/09/07 08:47:36;;;;;;;0.20;0.20;;;;;;;25.34;38.21;101993.09;4976654;28;20062;-93
2023/09/07 08:50:02;;;;;;;0.20;0.20;;;;;;;25.34;37.66;101974.56;4958030;28;20050;-86
2023/09/07 08:52:27;;;;;;;0.20;0.20;;;;;;;25.54;36.65;101986.00;4991141;28;20092;-87
2023/09/07 08:54:53;;;;;;;0.20;0.20;;;;;;;25.50;36.20;101978.47;4976977;28;20413;-91
2023/09/07 08:57:18;;;;;;;0.20;0.20;;;;;;;25.60;36.14;101982.78;4959294;28;20034;-84
2023/09/07 08:59:44;;;;;;;0.20;0.20;;;;;;;25.72;35.96;101975.56;4968208;28;20077;-86
2023/09/07 09:02:10;;;;;;;0.20;0.20;;;;;;;25.77;35.07;101968.03;4972745;28;20045;-90
2023/09/07 09:04:36;;;;;;;0.20;0.20;;;;;;;25.87;36.33;101971.50;4983530;28;20067;-91
2023/09/07 09:07:03;;;;;;;0.20;0.20;;;;;;;25.89;35.65;101981.97;4957455;28;20035;-91
2023/09/07 09:09:29;;;;;;;0.20;0.20;;;;;;;25.74;35.67;101970.94;4988288;28;20046;-93
2023/09/07 09:11:54;;;;;;;0.20;0.20;;;;;;;25.66;37.21;101971.66;4939068;28;20034;-89
2023/09/07 09:14:22;;;;;;;0.20;0.20;;;;;;;25.72;35.68;101971.09;4971306;28;20109;-92
2023/09/07 09:16:51;;;;;;;0.20;0.20;;;;;;;25.66;36.47;101970.78;4965351;28;20030;-89
2023/09/07 09:19:17;;;;;;;0.20;0.20;;;;;;;25.54;36.25;101946.25;4986208;28;20054;-91
2023/09/07 09:21:44;;;;;;;0.20;0.20;;;;;;;25.46;36.99;101940.81;4957002;28;20033;-90
2023/09/07 09:24:10;;;;;;;0.20;0.20;;;;;;;25.51;36.23;101961.59;4955546;28;20038;-90
2023/09/07 09:26:37;;;;;;;0.20;0.20;;;;;;;25.62;36.22;101961.44;4967890;28;20053;-93
2023/09/07 09:29:02;;;;;;;0.20;0.20;;;;;;;25.68;36.65;101969.69;4971077;28;20030;-91
2023/09/07 09:31:28;;;;;;;0.20;0.20;;;;;;;25.71;36.59;101952.69;4938113;28;20031;-91
2023/09/07 09:33:53;;;;;;;0.20;0.20;;;;;;;25.67;39.26;101951.28;4937060;28;20485;-89
2023/09/07 09:36:19;;;;;;;0.20;0.20;;;;;;;25.83;36.26;101962.16;4955128;28;20429;-90
2023/09/07 09:38:47;;;;;;;0.20;0.20;;;;;;;25.88;39.60;101957.28;4959748;28;20166;-87
2023/09/07 09:41:13;;;;;;;0.20;0.20;;;;;;;26.02;38.42;101951.50;4950919;28;20053;-88
2023/09/07 09:43:39;;;;;;;0.20;0.20;;;;;;;26.29;38.47;101957.84;4971224;28;20035;-88
2023/09/07 09:46:04;;;;;;;0.20;0.20;;;;;;;26.57;36.57;101951.63;4964651;28;20527;-85
2023/09/07 09:48:30;;;;;;;0.20;0.20;;;;;;;26.72;37.49;101948.44;4965020;28;20054;-87
2023/09/07 09:50:55;;;;;;;0.20;0.20;;;;;;;26.94;35.71;101953.38;4956728;28;20034;-90
2023/09/07 09:53:22;;;;;;;0.20;0.20;;;;;;;27.16;34.55;101949.47;4970173;28;20035;-91
2023/09/07 09:55:48;;;;;;;0.20;0.20;;;;;;;27.31;33.54;101953.25;4955042;28;20035;-87
2023/09/07 09:58:14;;;;;;;0.20;0.20;;;;;;;27.31;33.61;101944.44;4938541;28;20412;-88
2023/09/07 10:00:47;;;;;;;0.20;0.20;;;;;;;27.52;34.62;101946.78;4953948;28;20033;-91
2023/09/07 10:03:26;;;;;;;0.20;0.20;;;;;;;27.62;33.54;101943.03;4951131;28;20039;-90
2023/09/07 10:05:52;;;;;;;0.20;0.20;;;;;;;27.77;33.13;101929.22;4971151;28;20026;-91
2023/09/07 10:08:18;;;;;;;0.20;0.20;;;;;;;28.02;33.00;101928.38;4955254;28;20412;-95
2023/09/07 10:10:46;;;;;;;0.20;0.20;;;;;;;27.88;33.28;101924.47;4964052;28;20031;-88
2023/09/07 10:13:15;;;;;;;0.20;0.20;;;;;;;27.75;34.13;101917.91;4954139;28;20041;-91
2023/09/07 10:15:41;;;;;;;0.20;0.20;;;;;;;27.88;33.26;101926.31;4981118;28;20127;-89
2023/09/07 10:18:10;;;;;;;0.20;0.20;;;;;;;27.81;33.54;101906.66;4986706;28;20054;-88
2023/09/07 10:21:02;;;;;;;0.20;0.20;;;;;;;27.99;33.48;101896.78;4975308;28;20065;-88
2023/09/07 10:23:44;;;;;;;0.20;0.20;;;;;;;28.05;32.92;101893.50;4982113;28;20488;-91
2023/09/07 10:26:14;;;;;;;0.20;0.20;;;;;;;28.11;32.38;101890.19;4953864;28;20493;-87
2023/09/07 10:28:39;;;;;;;0.20;0.20;;;;;;;28.12;32.60;101894.53;4947982;28;20453;-88
2023/09/07 10:31:06;;;;;;;0.20;0.20;;;;;;;28.29;32.39;101893.63;4953515;28;20525;-85
2023/09/07 10:34:33;;;;;;;0.20;0.20;;;;;;;28.52;32.29;101887.72;4955353;28;20033;-87
2023/09/07 10:37:10;;;;;;;0.20;0.20;;;;;;;28.64;31.90;101886.44;4877544;29;20451;-90
2023/09/07 10:39:36;;;;;;;0.20;0.20;;;;;;;28.61;31.67;101868.09;4876520;29;20503;-88
2023/09/07 10:42:02;;;;;;;0.22;0.22;;;;;;;28.62;31.98;101872.47;4942492;28;20089;-88
2023/09/07 10:44:28;;;;;;;0.20;0.20;;;;;;;28.85;31.44;101880.63;4953312;28;20031;-88
2023/09/07 10:46:55;;;;;;;0.20;0.20;;;;;;;28.92;31.62;101873.69;4954098;28;20042;-86
2023/09/07 10:49:20;;;;;;;0.20;0.20;;;;;;;28.91;31.48;101841.88;4934457;28;20055;-86
2023/09/07 10:51:46;;;;;;;0.20;0.20;;;;;;;29.17;31.28;101871.84;4967698;28;20393;-91
2023/09/07 10:54:21;;;;;;;0.20;0.20;;;;;;;29.26;31.44;101873.53;4954098;28;20045;-87
2023/09/07 10:56:48;;;;;;;0.20;0.20;;;;;;;29.20;31.48;101857.38;4972660;28;20031;-90
2023/09/07 10:59:14;;;;;;;0.20;0.20;;;;;;;29.28;32.27;101852.88;4955923;28;20033;-88
2023/09/07 11:01:39;;;;;;;0.20;0.20;;;;;;;29.35;31.72;101872.53;4972275;28;20047;-87
2023/09/07 11:04:07;;;;;;;0.20;0.20;;;;;;;29.39;31.24;101859.69;4953317;28;20456;-88
2023/09/07 11:06:33;;;;;;;0.20;0.20;;;;;;;29.64;31.49;101858.69;4941137;28;20039;-89
2023/09/07 11:09:04;;;;;;;0.20;0.20;;;;;;;29.87;31.05;101858.78;4941247;28;20050;-88
2023/09/07 11:11:31;;;;;;;0.20;0.20;;;;;;;29.81;31.61;101854.16;4955297;28;20038;-93
2023/09/07 11:13:57;;;;;;;0.20;0.20;;;;;;;29.87;31.65;101850.78;4957245;28;20445;-90
2023/09/07 11:16:24;;;;;;;0.20;0.20;;;;;;;30.06;31.05;101838.03;4940589;28;20049;-86
2023/09/07 11:18:51;;;;;;;0.20;0.20;;;;;;;30.33;30.29;101848.28;4971977;28;20062;-93
2023/09/07 11:21:16;;;;;;;0.20;0.20;;;;;;;30.40;30.15;101841.25;4957890;28;20026;-96